createdAt,value
2022-11-18T00:00:10.790Z,3.47
2022-11-18T00:01:32.411Z,3.47
2022-11-18T00:02:54.892Z,3.47
2022-11-18T00:04:24.361Z,3.44
2022-11-18T00:05:54.091Z,3.47
2022-11-18T00:07:16.810Z,3.47
2022-11-18T00:08:38.284Z,3.45
2022-11-18T00:10:00.466Z,3.44
2022-11-18T00:11:45.500Z,3.43
2022-11-18T00:13:30.692Z,3.41
2022-11-18T00:14:53.081Z,3.38
2022-11-18T00:16:14.246Z,3.37
2022-11-18T00:17:38.923Z,3.36
2022-11-18T00:19:00.622Z,3.35
2022-11-18T00:20:25.160Z,3.33
2022-11-18T00:21:46.438Z,3.31
2022-11-18T00:23:08.848Z,3.30
2022-11-18T00:24:31.274Z,3.29
2022-11-18T00:25:52.669Z,3.27
2022-11-18T00:27:16.541Z,3.26
2022-11-18T00:28:41.908Z,3.24
2022-11-18T00:30:03.986Z,3.26
2022-11-18T00:31:25.653Z,3.25
2022-11-18T00:32:48.685Z,3.25
2022-11-18T00:34:12.375Z,3.26
2022-11-18T00:35:34.469Z,3.26
2022-11-18T00:36:58.100Z,3.26
2022-11-18T00:38:20.234Z,3.26
2022-11-18T00:39:42.094Z,3.22
2022-11-18T00:41:05.620Z,3.23
2022-11-18T00:42:46.967Z,3.24
2022-11-18T00:44:09.715Z,3.23
2022-11-18T00:45:31.120Z,3.24
2022-11-18T00:46:53.651Z,3.24
2022-11-18T00:48:15.154Z,3.24
2022-11-18T00:49:37.622Z,3.24
2022-11-18T00:51:07.466Z,3.24
2022-11-18T00:52:40.076Z,3.24
2022-11-18T00:54:01.229Z,3.23
2022-11-18T00:55:24.453Z,3.24
2022-11-18T00:56:45.955Z,3.25
2022-11-18T00:58:10.080Z,3.26
2022-11-18T00:59:32.174Z,3.27
2022-11-18T01:00:53.600Z,3.27
2022-11-18T01:02:16.249Z,3.28
2022-11-18T01:03:36.839Z,3.26
2022-11-18T01:04:58.873Z,3.27
2022-11-18T01:06:20.114Z,3.30
2022-11-18T01:07:42.412Z,3.32
2022-11-18T01:09:05.170Z,3.34
2022-11-18T01:10:26.059Z,3.37
2022-11-18T01:12:05.699Z,3.38
2022-11-18T01:13:31.640Z,3.39
2022-11-18T01:14:52.693Z,3.39
2022-11-18T01:16:20.421Z,3.40
2022-11-18T01:17:45.283Z,3.39
2022-11-18T01:19:09.018Z,3.38
2022-11-18T01:20:33.745Z,3.36
2022-11-18T01:21:56.658Z,3.35
2022-11-18T01:23:20.437Z,3.34
2022-11-18T01:24:45.407Z,3.33
2022-11-18T01:26:08.565Z,3.32
2022-11-18T01:27:31.031Z,3.30
2022-11-18T01:28:56.063Z,3.27
2022-11-18T01:30:18.840Z,3.28
2022-11-18T01:31:55.514Z,3.26
2022-11-18T01:33:23.186Z,3.23
2022-11-18T01:34:48.168Z,3.21
2022-11-18T01:36:17.740Z,3.20
2022-11-18T01:37:40.049Z,3.19
2022-11-18T01:39:01.579Z,3.18
2022-11-18T01:40:23.509Z,3.16
2022-11-18T01:41:45.800Z,3.15
2022-11-18T01:43:16.566Z,3.13
2022-11-18T01:45:05.225Z,3.10
2022-11-18T01:46:29.581Z,3.08
2022-11-18T01:47:55.446Z,3.07
2022-11-18T01:49:17.132Z,3.06
2022-11-18T01:50:46.130Z,3.05
2022-11-18T01:52:08.309Z,3.02
2022-11-18T01:53:34.796Z,3.00
2022-11-18T01:55:03.238Z,2.97
2022-11-18T01:56:30.971Z,2.94
2022-11-18T01:58:01.482Z,2.93
2022-11-18T01:59:27.487Z,2.92
2022-11-18T02:00:50.425Z,2.92
2022-11-18T02:02:15.755Z,2.93
2022-11-18T02:03:38.993Z,2.89
2022-11-18T02:05:03.366Z,2.89
2022-11-18T02:06:25.984Z,2.88
2022-11-18T02:07:47.488Z,2.86
2022-11-18T02:09:09.956Z,2.84
2022-11-18T02:10:31.287Z,2.83
2022-11-18T02:11:54.625Z,2.80
2022-11-18T02:13:17.479Z,2.78
2022-11-18T02:14:41.308Z,2.77
2022-11-18T02:16:13.746Z,2.76
2022-11-18T02:17:46.115Z,2.76
2022-11-18T02:19:16.874Z,2.74
2022-11-18T02:20:43.131Z,2.76
2022-11-18T02:22:19.495Z,2.77
2022-11-18T02:24:11.714Z,2.77
2022-11-18T02:25:43.948Z,2.80
2022-11-18T02:27:26.580Z,2.79
2022-11-18T02:29:01.285Z,2.83
2022-11-18T02:30:25.022Z,2.84
2022-11-18T02:31:53.821Z,2.83
2022-11-18T02:33:23.571Z,2.82
2022-11-18T02:34:53.384Z,2.81
2022-11-18T02:36:29.876Z,2.80
2022-11-18T02:37:58.428Z,2.79
2022-11-18T02:39:26.276Z,2.79
2022-11-18T02:40:52.715Z,2.78
2022-11-18T02:42:17.779Z,2.76
2022-11-18T02:43:44.761Z,2.75
2022-11-18T02:45:13.642Z,2.75
2022-11-18T02:46:39.351Z,2.75
2022-11-18T02:48:08.521Z,2.75
2022-11-18T02:49:36.720Z,2.74
2022-11-18T02:51:01.385Z,2.74
2022-11-18T02:52:24.999Z,2.74
2022-11-18T02:53:49.632Z,2.72
2022-11-18T02:55:15.205Z,2.72
2022-11-18T02:56:38.086Z,2.70
2022-11-18T02:58:02.100Z,2.69
2022-11-18T02:59:23.231Z,2.69
2022-11-18T03:00:46.872Z,2.69
2022-11-18T03:02:10.632Z,2.69
2022-11-18T03:03:34.654Z,2.68
2022-11-18T03:04:58.097Z,2.69
2022-11-18T03:06:28.969Z,2.68
2022-11-18T03:07:56.869Z,2.67
2022-11-18T03:09:26.240Z,2.65
2022-11-18T03:10:53.262Z,2.62
2022-11-18T03:12:24.579Z,2.62
2022-11-18T03:14:05.978Z,2.59
2022-11-18T03:15:38.952Z,2.58
2022-11-18T03:17:04.320Z,2.59
2022-11-18T03:18:30.653Z,2.57
2022-11-18T03:20:12.325Z,2.59
2022-11-18T03:21:37.886Z,2.59
2022-11-18T03:23:08.176Z,2.60
2022-11-18T03:24:32.805Z,2.62
2022-11-18T03:25:59.246Z,2.63
2022-11-18T03:27:26.985Z,2.65
2022-11-18T03:28:57.740Z,2.67
2022-11-18T03:30:23.553Z,2.68
2022-11-18T03:31:49.618Z,2.70
2022-11-18T03:33:19.708Z,2.70
2022-11-18T03:34:45.084Z,2.71
2022-11-18T03:36:12.038Z,2.73
2022-11-18T03:37:35.599Z,2.75
2022-11-18T03:39:02.833Z,2.75
2022-11-18T03:40:27.387Z,2.76
2022-11-18T03:41:54.887Z,2.78
2022-11-18T03:43:19.793Z,2.79
2022-11-18T03:44:52.199Z,2.80
2022-11-18T03:46:18.384Z,2.81
2022-11-18T03:47:45.869Z,2.80
2022-11-18T03:49:17.376Z,2.81
2022-11-18T03:50:44.814Z,2.79
2022-11-18T03:52:12.822Z,2.78
2022-11-18T03:53:36.782Z,2.79
2022-11-18T03:55:03.913Z,2.77
2022-11-18T03:56:31.565Z,2.75
2022-11-18T03:57:59.015Z,2.75
2022-11-18T03:59:25.538Z,2.74
2022-11-18T04:00:51.145Z,2.71
2022-11-18T04:02:17.036Z,2.72
2022-11-18T04:03:38.479Z,2.70
2022-11-18T04:05:04.233Z,2.70
2022-11-18T04:06:33.817Z,2.70
2022-11-18T04:07:58.096Z,2.69
2022-11-18T04:09:24.366Z,2.70
2022-11-18T04:10:52.230Z,2.69
2022-11-18T04:12:16.566Z,2.69
2022-11-18T04:13:39.097Z,2.67
2022-11-18T04:15:00.365Z,2.63
2022-11-18T04:16:22.508Z,2.62
2022-11-18T04:17:44.906Z,2.60
2022-11-18T04:19:06.452Z,2.61
2022-11-18T04:20:31.821Z,2.58
2022-11-18T04:21:53.685Z,2.57
2022-11-18T04:23:16.086Z,2.57
2022-11-18T04:24:37.501Z,2.57
2022-11-18T04:25:59.692Z,2.56
2022-11-18T04:27:20.622Z,2.57
2022-11-18T04:28:42.849Z,2.57
2022-11-18T04:30:03.608Z,2.54
2022-11-18T04:31:25.518Z,2.55
2022-11-18T04:32:47.490Z,2.53
2022-11-18T04:34:08.728Z,2.53
2022-11-18T04:35:32.380Z,2.52
2022-11-18T04:36:53.752Z,2.52
2022-11-18T04:38:21.633Z,2.52
2022-11-18T04:39:43.346Z,2.51
2022-11-18T04:41:06.117Z,2.50
2022-11-18T04:42:27.118Z,2.50
2022-11-18T04:43:49.180Z,2.51
2022-11-18T04:45:12.725Z,2.50
2022-11-18T04:46:33.653Z,2.49
2022-11-18T04:48:01.959Z,2.49
2022-11-18T04:49:25.655Z,2.48
2022-11-18T04:50:49.160Z,2.46
2022-11-18T04:52:11.720Z,2.45
2022-11-18T04:53:33.943Z,2.43
2022-11-18T04:54:55.961Z,2.41
2022-11-18T04:56:17.151Z,2.40
2022-11-18T04:57:39.494Z,2.38
2022-11-18T04:59:06.927Z,2.36
2022-11-18T05:00:29.233Z,2.34
2022-11-18T05:01:50.718Z,2.31
2022-11-18T05:03:17.730Z,2.30
2022-11-18T05:04:42.050Z,2.31
2022-11-18T05:06:07.155Z,2.31
2022-11-18T05:07:29.765Z,2.33
2022-11-18T05:08:50.694Z,2.33
2022-11-18T05:10:12.798Z,2.33
2022-11-18T05:11:52.020Z,2.31
2022-11-18T05:13:13.592Z,2.32
2022-11-18T05:14:37.785Z,2.31
2022-11-18T05:16:05.176Z,2.29
2022-11-18T05:17:27.356Z,2.25
2022-11-18T05:18:48.452Z,2.23
2022-11-18T05:20:11.333Z,2.19
2022-11-18T05:21:34.169Z,2.17
2022-11-18T05:22:56.510Z,2.15
2022-11-18T05:24:18.059Z,2.12
2022-11-18T05:25:40.073Z,2.11
2022-11-18T05:27:01.344Z,2.09
2022-11-18T05:28:23.874Z,2.09
2022-11-18T05:29:46.219Z,2.08
2022-11-18T05:31:08.635Z,2.10
2022-11-18T05:32:31.003Z,2.11
2022-11-18T05:33:52.388Z,2.13
2022-11-18T05:35:14.924Z,2.14
2022-11-18T05:36:37.488Z,2.14
2022-11-18T05:38:00.137Z,2.14
2022-11-18T05:39:22.451Z,2.13
2022-11-18T05:40:46.649Z,2.11
2022-11-18T05:42:26.950Z,2.10
2022-11-18T05:43:49.319Z,2.08
2022-11-18T05:45:09.970Z,2.02
2022-11-18T05:46:33.729Z,2.00
2022-11-18T05:48:01.681Z,1.98
2022-11-18T05:49:23.578Z,1.95
2022-11-18T05:50:48.660Z,1.92
2022-11-18T05:52:12.441Z,1.89
2022-11-18T05:53:34.473Z,1.88
2022-11-18T05:54:57.479Z,1.87
2022-11-18T05:56:22.869Z,1.86
2022-11-18T05:57:44.971Z,1.84
2022-11-18T05:59:07.809Z,1.85
2022-11-18T06:00:31.164Z,1.84
2022-11-18T06:01:57.840Z,1.86
2022-11-18T06:03:29.108Z,1.87
2022-11-18T06:04:57.674Z,1.87
2022-11-18T06:06:23.097Z,1.86
2022-11-18T06:07:47.471Z,1.82
2022-11-18T06:09:11.740Z,1.79
2022-11-18T06:10:38.962Z,1.78
2022-11-18T06:12:03.779Z,1.75
2022-11-18T06:13:36.306Z,1.72
2022-11-18T06:15:01.045Z,1.71
2022-11-18T06:16:28.186Z,1.69
2022-11-18T06:17:54.719Z,1.67
2022-11-18T06:19:17.722Z,1.63
2022-11-18T06:20:42.597Z,1.62
2022-11-18T06:22:05.444Z,1.59
2022-11-18T06:23:30.379Z,1.58
2022-11-18T06:24:53.017Z,1.57
2022-11-18T06:26:17.074Z,1.56
2022-11-18T06:27:39.162Z,1.55
2022-11-18T06:29:01.529Z,1.56
2022-11-18T06:30:23.202Z,1.53
2022-11-18T06:31:44.610Z,1.55
2022-11-18T06:33:06.519Z,1.56
2022-11-18T06:34:30.550Z,1.58
2022-11-18T06:35:52.843Z,1.58
2022-11-18T06:37:16.145Z,1.59
2022-11-18T06:38:39.564Z,1.60
2022-11-18T06:40:01.810Z,1.59
2022-11-18T06:41:23.378Z,1.59
2022-11-18T06:43:02.454Z,1.58
2022-11-18T06:44:24.737Z,1.58
2022-11-18T06:46:09.069Z,1.59
2022-11-18T06:47:31.476Z,1.59
2022-11-18T06:48:52.801Z,1.59
2022-11-18T06:50:15.073Z,1.59
2022-11-18T06:51:39.609Z,1.58
2022-11-18T06:53:02.698Z,1.59
2022-11-18T06:54:26.411Z,1.60
2022-11-18T06:55:47.582Z,1.60
2022-11-18T06:57:09.647Z,1.61
2022-11-18T06:58:31.972Z,1.59
2022-11-18T06:59:59.066Z,1.62
2022-11-18T07:01:25.494Z,1.62
2022-11-18T07:02:47.876Z,1.60
2022-11-18T07:04:10.243Z,1.58
2022-11-18T07:05:31.765Z,1.56
2022-11-18T07:06:54.392Z,1.56
2022-11-18T07:08:16.638Z,1.55
2022-11-18T07:09:40.490Z,1.54
2022-11-18T07:11:01.852Z,1.52
2022-11-18T07:12:24.086Z,1.50
2022-11-18T07:13:46.877Z,1.47
2022-11-18T07:15:12.691Z,1.46
2022-11-18T07:16:40.635Z,1.47
2022-11-18T07:18:01.788Z,1.49
2022-11-18T07:19:24.123Z,1.49
2022-11-18T07:20:45.364Z,1.51
2022-11-18T07:22:08.248Z,1.51
2022-11-18T07:23:29.150Z,1.56
2022-11-18T07:24:53.530Z,1.59
2022-11-18T07:26:16.419Z,1.62
2022-11-18T07:27:37.849Z,1.66
2022-11-18T07:29:00.163Z,1.68
2022-11-18T07:30:22.113Z,1.67
2022-11-18T07:31:44.415Z,1.67
2022-11-18T07:33:05.769Z,1.66
2022-11-18T07:34:31.163Z,1.64
2022-11-18T07:35:52.180Z,1.62
2022-11-18T07:37:14.552Z,1.62
2022-11-18T07:38:37.317Z,1.61
2022-11-18T07:40:01.245Z,1.63
2022-11-18T07:41:25.544Z,1.62
2022-11-18T07:42:47.624Z,1.65
2022-11-18T07:44:18.976Z,1.66
2022-11-18T07:45:44.299Z,1.68
2022-11-18T07:47:06.563Z,1.69
2022-11-18T07:48:28.634Z,1.68
2022-11-18T07:49:50.752Z,1.67
2022-11-18T07:51:13.616Z,1.65
2022-11-18T07:52:34.918Z,1.65
2022-11-18T07:53:59.865Z,1.65
2022-11-18T07:55:26.877Z,1.65
2022-11-18T07:56:54.991Z,1.64
2022-11-18T07:58:16.102Z,1.60
2022-11-18T07:59:38.191Z,1.57
2022-11-18T08:01:00.673Z,1.53
2022-11-18T08:02:22.641Z,1.48
2022-11-18T08:03:45.482Z,1.44
2022-11-18T08:05:12.152Z,1.40
2022-11-18T08:06:39.524Z,1.36
2022-11-18T08:08:01.661Z,1.32
2022-11-18T08:09:22.455Z,1.30
2022-11-18T08:10:46.204Z,1.29
2022-11-18T08:12:08.574Z,1.28
2022-11-18T08:13:31.222Z,1.27
2022-11-18T08:14:53.084Z,1.24
2022-11-18T08:16:20.051Z,1.22
2022-11-18T08:17:42.850Z,1.19
2022-11-18T08:19:08.547Z,1.19
2022-11-18T08:20:30.720Z,1.19
2022-11-18T08:21:52.628Z,1.20
2022-11-18T08:23:18.715Z,1.20
2022-11-18T08:24:40.951Z,1.21
2022-11-18T08:26:07.196Z,1.22
2022-11-18T08:27:29.744Z,1.22
2022-11-18T08:28:52.351Z,1.21
2022-11-18T08:30:15.376Z,1.20
2022-11-18T08:31:37.438Z,1.20
2022-11-18T08:32:59.884Z,1.19
2022-11-18T08:34:21.525Z,1.20
2022-11-18T08:35:43.769Z,1.24
2022-11-18T08:37:05.977Z,1.29
2022-11-18T08:38:28.670Z,1.34
2022-11-18T08:39:51.591Z,1.40
2022-11-18T08:41:17.314Z,1.46
2022-11-18T08:42:39.500Z,1.53
2022-11-18T08:44:02.237Z,1.59
2022-11-18T08:45:24.351Z,1.63
2022-11-18T08:46:47.041Z,1.68
2022-11-18T08:48:11.372Z,1.71
2022-11-18T08:49:33.637Z,1.76
2022-11-18T08:50:56.368Z,1.82
2022-11-18T08:52:20.558Z,1.85
2022-11-18T08:54:09.596Z,1.88
2022-11-18T08:55:32.339Z,1.88
2022-11-18T08:56:56.117Z,1.90
2022-11-18T08:58:18.390Z,1.90
2022-11-18T08:59:40.666Z,1.92
2022-11-18T09:01:05.936Z,1.90
2022-11-18T09:02:29.983Z,1.91
2022-11-18T09:03:52.738Z,1.90
2022-11-18T09:05:15.203Z,1.91
2022-11-18T09:06:38.637Z,1.91
2022-11-18T09:08:01.299Z,1.92
2022-11-18T09:09:24.427Z,1.93
2022-11-18T09:10:46.746Z,1.93
2022-11-18T09:12:14.595Z,1.90
2022-11-18T09:14:14.430Z,1.86
2022-11-18T09:15:19.775Z,1.84
2022-11-18T09:16:42.567Z,1.82
2022-11-18T09:18:05.430Z,1.79
2022-11-18T09:21:11.629Z,1.72
2022-11-18T09:22:34.125Z,1.71
2022-11-18T09:23:56.243Z,1.69
2022-11-18T09:25:18.481Z,1.69
2022-11-18T09:26:41.362Z,1.68
2022-11-18T09:28:05.130Z,1.67
2022-11-18T09:29:27.470Z,1.64
2022-11-18T09:30:49.981Z,1.59
2022-11-18T09:32:12.276Z,1.56
2022-11-18T09:33:34.699Z,1.52
2022-11-18T09:34:57.447Z,1.48
2022-11-18T09:36:21.455Z,1.48
2022-11-18T09:37:43.491Z,1.49
2022-11-18T09:39:09.084Z,1.48
2022-11-18T09:40:31.238Z,1.47
2022-11-18T09:41:56.552Z,1.45
2022-11-18T09:43:30.042Z,1.48
2022-11-18T09:45:15.354Z,1.48
2022-11-18T09:46:52.752Z,1.49
2022-11-18T09:48:19.678Z,1.51
2022-11-18T09:49:47.771Z,1.52
2022-11-18T09:51:14.111Z,1.55
2022-11-18T09:52:41.943Z,1.56
2022-11-18T09:54:02.987Z,1.58
2022-11-18T09:55:25.411Z,1.59
2022-11-18T09:56:48.543Z,1.60
2022-11-18T09:58:18.374Z,1.62
2022-11-18T09:59:42.352Z,1.62
2022-11-18T10:01:05.670Z,1.61
2022-11-18T10:02:50.423Z,1.60
2022-11-18T10:04:25.504Z,1.62
2022-11-18T10:05:59.492Z,1.63
2022-11-18T10:07:30.240Z,1.64
2022-11-18T10:09:05.667Z,1.63
2022-11-18T10:10:35.282Z,1.62
2022-11-18T10:12:16.215Z,1.58
2022-11-18T10:13:56.898Z,1.55
2022-11-18T10:15:26.752Z,1.55
2022-11-18T10:16:58.140Z,1.51
2022-11-18T10:18:58.358Z,1.50
2022-11-18T10:20:26.542Z,1.49
2022-11-18T10:22:02.232Z,1.49
2022-11-18T10:23:33.712Z,1.52
2022-11-18T10:24:57.719Z,1.55
2022-11-18T10:26:36.498Z,1.58
2022-11-18T10:28:15.170Z,1.62
2022-11-18T10:29:37.541Z,1.65
2022-11-18T10:31:08.586Z,1.67
2022-11-18T10:32:30.748Z,1.69
2022-11-18T10:34:00.752Z,1.69
2022-11-18T10:35:27.684Z,1.67
2022-11-18T10:37:01.369Z,1.67
2022-11-18T10:38:23.700Z,1.68
2022-11-18T10:39:55.326Z,1.70
2022-11-18T10:41:20.122Z,1.70
2022-11-18T10:42:46.059Z,1.67
2022-11-18T10:44:37.782Z,1.64
2022-11-18T10:46:25.262Z,1.61
2022-11-18T10:47:59.281Z,1.58
2022-11-18T10:49:21.653Z,1.58
2022-11-18T10:50:49.224Z,1.62
2022-11-18T10:52:16.428Z,1.64
2022-11-18T10:53:39.247Z,1.65
2022-11-18T10:55:23.205Z,1.68
2022-11-18T10:56:57.778Z,1.72
2022-11-18T10:58:20.941Z,1.75
2022-11-18T10:59:51.408Z,1.77
2022-11-18T11:01:24.463Z,1.76
2022-11-18T11:02:49.816Z,1.78
2022-11-18T11:04:21.301Z,1.79
2022-11-18T11:05:44.140Z,1.82
2022-11-18T11:07:17.868Z,1.85
2022-11-18T11:08:49.620Z,1.87
2022-11-18T11:10:24.696Z,1.88
2022-11-18T11:11:59.566Z,1.88
2022-11-18T11:13:21.130Z,1.88
2022-11-18T11:14:52.485Z,1.89
2022-11-18T11:16:23.427Z,1.90
2022-11-18T11:18:09.082Z,1.87
2022-11-18T11:19:41.959Z,1.86
2022-11-18T11:21:04.228Z,1.88
2022-11-18T11:22:26.774Z,1.89
2022-11-18T11:23:47.812Z,1.91
2022-11-18T11:25:15.137Z,1.91
2022-11-18T11:28:32.913Z,1.94
2022-11-18T11:30:09.881Z,1.96
2022-11-18T11:31:40.972Z,1.96
2022-11-18T11:33:20.916Z,1.96
2022-11-18T11:34:51.424Z,1.95
2022-11-18T11:36:27.105Z,1.94
2022-11-18T11:37:55.300Z,1.94
2022-11-18T11:39:38.945Z,1.93
2022-11-18T11:41:10.659Z,1.92
2022-11-18T11:42:50.418Z,1.88
2022-11-18T11:44:38.182Z,1.84
2022-11-18T11:46:20.104Z,1.80
2022-11-18T11:48:00.377Z,1.77
2022-11-18T11:49:31.388Z,1.72
2022-11-18T11:51:05.379Z,1.68
2022-11-18T11:52:50.848Z,1.64
2022-11-18T11:54:33.198Z,1.63
2022-11-18T11:56:06.103Z,1.61
2022-11-18T11:57:43.941Z,1.57
2022-11-18T11:59:16.163Z,1.54
2022-11-18T12:00:42.503Z,1.49
2022-11-18T12:02:36.332Z,1.46
2022-11-18T12:04:09.623Z,1.45
2022-11-18T12:05:45.547Z,1.42
2022-11-18T12:07:24.062Z,1.42
2022-11-18T12:09:00.886Z,1.39
2022-11-18T12:10:34.160Z,1.36
2022-11-18T12:12:02.443Z,1.31
2022-11-18T12:13:43.231Z,1.25
2022-11-18T12:15:23.636Z,1.23
2022-11-18T12:16:55.027Z,1.21
2022-11-18T12:18:24.398Z,1.20
2022-11-18T12:19:46.673Z,1.21
2022-11-18T12:21:55.056Z,1.22
2022-11-18T12:23:20.237Z,1.24
2022-11-18T12:24:46.779Z,1.22
2022-11-18T12:26:11.567Z,1.22
2022-11-18T12:28:00.542Z,1.21
2022-11-18T12:29:27.775Z,1.22
2022-11-18T12:30:50.198Z,1.26
2022-11-18T12:32:31.372Z,1.29
2022-11-18T12:33:57.590Z,1.34
2022-11-18T12:35:30.021Z,1.37
2022-11-18T12:36:58.186Z,1.38
2022-11-18T12:38:32.182Z,1.37
2022-11-18T12:40:03.600Z,1.34
2022-11-18T12:42:11.460Z,1.28
2022-11-18T12:44:07.413Z,1.24
2022-11-18T12:45:58.302Z,1.20
2022-11-18T12:47:59.340Z,1.16
2022-11-18T12:50:13.596Z,1.14
2022-11-18T12:51:42.938Z,1.11
2022-11-18T12:53:12.350Z,1.10
2022-11-18T12:54:38.346Z,1.07
2022-11-18T12:56:00.306Z,1.05
2022-11-18T12:57:24.232Z,1.02
2022-11-18T12:58:47.431Z,1.03
2022-11-18T13:00:30.207Z,1.00
2022-11-18T13:02:04.080Z,0.97
2022-11-18T13:03:30.934Z,0.92
2022-11-18T13:05:10.444Z,0.88
2022-11-18T13:06:34.679Z,0.86
2022-11-18T13:08:14.346Z,0.83
2022-11-18T13:09:38.410Z,0.82
2022-11-18T13:11:29.281Z,0.81
2022-11-18T13:12:52.602Z,0.81
2022-11-18T13:14:36.365Z,0.81
2022-11-18T13:16:20.916Z,0.80
2022-11-18T13:17:54.912Z,0.80
2022-11-18T13:19:23.636Z,0.79
2022-11-18T13:20:56.522Z,0.80
2022-11-18T13:22:36.940Z,0.80
2022-11-18T13:24:01.363Z,0.78
2022-11-18T13:25:26.351Z,0.78
2022-11-18T13:26:54.552Z,0.79
2022-11-18T13:28:27.141Z,0.78
2022-11-18T13:29:54.655Z,0.78
2022-11-18T13:31:26.150Z,0.75
2022-11-18T13:32:49.853Z,0.73
2022-11-18T13:34:22.218Z,0.71
2022-11-18T13:35:46.429Z,0.70
2022-11-18T13:37:20.026Z,0.69
2022-11-18T13:38:56.584Z,0.68
2022-11-18T13:40:21.644Z,0.68
2022-11-18T13:41:46.950Z,0.68
2022-11-18T13:43:12.425Z,0.68
2022-11-18T13:44:37.369Z,0.67
2022-11-18T13:46:01.670Z,0.66
2022-11-18T13:47:37.313Z,0.66
2022-11-18T13:49:00.807Z,0.66
2022-11-18T13:50:28.660Z,0.66
2022-11-18T13:51:51.934Z,0.66
2022-11-18T13:53:30.657Z,0.69
2022-11-18T13:54:55.229Z,0.69
2022-11-18T13:56:21.573Z,0.72
2022-11-18T13:57:48.490Z,0.71
2022-11-18T13:59:18.578Z,0.69
2022-11-18T14:00:41.081Z,0.70
2022-11-18T14:02:02.678Z,0.67
2022-11-18T14:03:30.080Z,0.66
2022-11-18T14:04:56.465Z,0.64
2022-11-18T14:06:26.829Z,0.62
2022-11-18T14:08:05.468Z,0.61
2022-11-18T14:09:29.387Z,0.59
2022-11-18T14:10:51.516Z,0.57
2022-11-18T14:12:25.216Z,0.52
2022-11-18T14:13:55.173Z,0.49
2022-11-18T14:15:23.319Z,0.46
2022-11-18T14:16:45.463Z,0.42
2022-11-18T14:18:21.264Z,0.37
2022-11-18T14:19:43.731Z,0.34
2022-11-18T14:21:07.067Z,0.33
2022-11-18T14:22:31.040Z,0.29
2022-11-18T14:23:53.221Z,0.28
2022-11-18T14:25:25.925Z,0.27
2022-11-18T14:26:52.737Z,0.25
2022-11-18T14:28:31.372Z,0.22
2022-11-18T14:29:57.236Z,0.22
2022-11-18T14:31:33.484Z,0.23
2022-11-18T14:33:20.929Z,0.22
2022-11-18T14:34:43.856Z,0.24
2022-11-18T14:36:17.938Z,0.25
2022-11-18T14:37:43.860Z,0.27
2022-11-18T14:41:13.932Z,0.31
2022-11-18T14:43:02.578Z,0.32
2022-11-18T14:44:27.124Z,0.32
2022-11-18T14:46:04.144Z,0.33
2022-11-18T14:47:30.500Z,0.33
2022-11-18T14:49:05.993Z,0.33
2022-11-18T14:50:28.678Z,0.29
2022-11-18T14:51:59.156Z,0.27
2022-11-18T14:53:28.014Z,0.25
2022-11-18T14:54:50.489Z,0.23
2022-11-18T14:56:19.423Z,0.20
2022-11-18T14:57:46.033Z,0.17
2022-11-18T15:01:18.833Z,0.13
2022-11-18T15:02:49.339Z,0.12
2022-11-18T15:05:14.666Z,0.09
2022-11-18T15:06:53.810Z,0.03
2022-11-18T15:13:58.795Z,-0.16
2022-11-18T15:15:40.817Z,-0.18
2022-11-18T15:17:58.746Z,-0.23
2022-11-18T15:19:46.810Z,-0.29
2022-11-18T15:21:45.658Z,-0.31
2022-11-18T15:23:11.402Z,-0.34
2022-11-18T15:25:06.943Z,-0.34
2022-11-18T15:26:42.175Z,-0.35
2022-11-18T15:28:11.860Z,-0.37
2022-11-18T15:29:34.891Z,-0.37
2022-11-18T15:30:58.284Z,-0.37
2022-11-18T15:32:34.408Z,-0.37
2022-11-18T15:34:24.553Z,-0.39
2022-11-18T15:36:03.289Z,-0.40
2022-11-18T15:37:29.202Z,-0.42
2022-11-18T15:39:01.636Z,-0.44
2022-11-18T15:40:26.336Z,-0.46
2022-11-18T15:41:55.914Z,-0.47
2022-11-18T15:43:19.360Z,-0.48
2022-11-18T15:44:41.779Z,-0.48
2022-11-18T15:46:09.754Z,-0.49
2022-11-18T15:47:36.495Z,-0.49
2022-11-18T15:49:04.476Z,-0.49
2022-11-18T15:50:27.216Z,-0.48
2022-11-18T15:51:50.028Z,-0.48
2022-11-18T15:53:14.002Z,-0.47
2022-11-18T15:54:37.434Z,-0.46
2022-11-18T16:08:05.812Z,-0.32
2022-11-18T16:10:03.694Z,-0.30
2022-11-18T16:11:50.956Z,-0.29
2022-11-18T16:13:18.180Z,-0.28
2022-11-18T16:14:40.559Z,-0.26
2022-11-18T16:16:04.599Z,-0.25
2022-11-18T16:17:26.919Z,-0.23
2022-11-18T16:18:49.707Z,-0.22
2022-11-18T16:20:15.235Z,-0.20
2022-11-18T16:21:58.727Z,-0.19
2022-11-18T16:23:22.852Z,-0.18
2022-11-18T16:24:48.625Z,-0.19
2022-11-18T16:26:17.075Z,-0.19
2022-11-18T16:27:40.229Z,-0.18
2022-11-18T16:29:09.391Z,-0.18
2022-11-18T16:30:53.498Z,-0.19
2022-11-18T16:32:15.846Z,-0.20
2022-11-18T16:33:37.307Z,-0.20
2022-11-18T16:35:02.832Z,-0.20
2022-11-18T16:36:30.051Z,-0.23
2022-11-18T16:37:56.710Z,-0.23
2022-11-18T16:39:23.717Z,-0.23
2022-11-18T16:40:54.788Z,-0.23
2022-11-18T16:42:20.749Z,-0.23
2022-11-18T16:44:06.693Z,-0.25
2022-11-18T16:45:32.788Z,-0.25
2022-11-18T16:46:59.627Z,-0.24
2022-11-18T16:48:24.389Z,-0.24
2022-11-18T16:49:50.812Z,-0.24
2022-11-18T16:51:25.483Z,-0.24
2022-11-18T16:52:48.589Z,-0.24
2022-11-18T16:54:44.670Z,-0.25
2022-11-18T16:56:44.652Z,-0.24
2022-11-18T16:58:25.019Z,-0.23
2022-11-18T16:59:47.515Z,-0.23
2022-11-18T17:01:24.633Z,-0.21
2022-11-18T17:02:50.989Z,-0.19
2022-11-18T17:04:24.311Z,-0.16
2022-11-18T17:06:07.633Z,-0.12
2022-11-18T17:07:38.276Z,-0.09
2022-11-18T17:09:21.587Z,-0.04
2022-11-18T17:10:48.751Z,0.03
2022-11-18T17:12:11.003Z,0.09
2022-11-18T17:13:33.295Z,0.14
2022-11-18T17:14:59.223Z,0.19
2022-11-18T17:16:25.661Z,0.25
2022-11-18T17:17:47.733Z,0.30
2022-11-18T17:19:16.052Z,0.36
2022-11-18T17:20:38.599Z,0.42
2022-11-18T17:22:16.640Z,0.48
2022-11-18T17:24:00.955Z,0.56
2022-11-18T17:25:23.289Z,0.62
2022-11-18T17:26:47.690Z,0.69
2022-11-18T17:28:10.177Z,0.73
2022-11-18T17:29:33.095Z,0.80
2022-11-18T17:30:56.838Z,0.86
2022-11-18T17:32:19.339Z,0.92
2022-11-18T17:33:40.609Z,0.97
2022-11-18T17:35:05.089Z,1.03
2022-11-18T17:36:28.855Z,1.07
2022-11-18T17:37:51.075Z,1.12
2022-11-18T17:39:18.313Z,1.17
2022-11-18T17:40:39.769Z,1.21
2022-11-18T17:42:17.756Z,1.26
2022-11-18T17:43:39.889Z,1.33
2022-11-18T17:45:03.380Z,1.37
2022-11-18T17:46:30.958Z,1.41
2022-11-18T17:47:56.982Z,1.44
2022-11-18T17:49:24.652Z,1.47
2022-11-18T17:50:47.545Z,1.50
2022-11-18T17:52:17.143Z,1.53
2022-11-18T17:53:43.268Z,1.57
2022-11-18T17:55:07.068Z,1.60
2022-11-18T17:56:32.828Z,1.63
2022-11-18T17:57:57.522Z,1.65
2022-11-18T17:59:19.038Z,1.68
2022-11-18T18:00:41.990Z,1.70
2022-11-18T18:02:04.539Z,1.71
2022-11-18T18:03:29.856Z,1.74
2022-11-18T18:04:58.399Z,1.74
2022-11-18T18:06:25.031Z,1.78
2022-11-18T18:07:48.675Z,1.79
2022-11-18T18:09:30.493Z,1.80
2022-11-18T18:11:13.215Z,1.82
2022-11-18T18:12:59.190Z,1.85
2022-11-18T18:14:25.240Z,1.87
2022-11-18T18:15:52.999Z,1.89
2022-11-18T18:17:34.750Z,1.90
2022-11-18T18:18:57.784Z,1.91
2022-11-18T18:20:20.273Z,1.93
2022-11-18T18:21:48.259Z,1.94
2022-11-18T18:23:10.849Z,1.94
2022-11-18T18:24:35.970Z,1.95
2022-11-18T18:25:57.137Z,1.94
2022-11-18T18:27:21.013Z,1.95
2022-11-18T18:28:42.148Z,1.94
2022-11-18T18:30:12.590Z,1.94
2022-11-18T18:31:36.156Z,1.92
2022-11-18T18:32:58.183Z,1.91
2022-11-18T18:34:20.751Z,1.90
2022-11-18T18:35:43.868Z,1.87
2022-11-18T18:37:24.229Z,1.83
2022-11-18T18:39:01.620Z,1.79
2022-11-18T18:40:24.539Z,1.79
2022-11-18T18:41:47.158Z,1.79
2022-11-18T18:43:08.116Z,1.78
2022-11-18T18:44:53.132Z,1.77
2022-11-18T18:46:37.112Z,1.76
2022-11-18T18:48:23.704Z,1.73
2022-11-18T18:50:26.628Z,1.68
2022-11-18T18:52:01.923Z,1.68
2022-11-18T18:53:37.711Z,1.66
2022-11-18T18:55:10.952Z,1.65
2022-11-18T18:56:44.214Z,1.63
2022-11-18T18:58:11.869Z,1.62
2022-11-18T18:59:48.181Z,1.59
2022-11-18T19:01:51.927Z,1.58
2022-11-18T19:03:17.008Z,1.58
2022-11-18T19:04:42.223Z,1.58
2022-11-18T19:06:48.756Z,1.58
2022-11-18T19:08:09.114Z,1.58
2022-11-18T19:09:37.853Z,1.58
2022-11-18T19:11:09.182Z,1.57
2022-11-18T19:12:55.232Z,1.56
2022-11-18T19:14:51.101Z,1.55
2022-11-18T19:16:31.722Z,1.55
2022-11-18T19:18:06.498Z,1.55
2022-11-18T19:19:50.628Z,1.52
2022-11-18T19:21:51.664Z,1.50
2022-11-18T19:23:39.680Z,1.47
2022-11-18T19:25:02.661Z,1.46
2022-11-18T19:26:28.328Z,1.43
2022-11-18T19:27:53.611Z,1.40
2022-11-18T19:29:16.320Z,1.37
2022-11-18T19:30:43.540Z,1.34
2022-11-18T19:32:07.585Z,1.32
2022-11-18T19:33:31.817Z,1.32
2022-11-18T19:35:21.524Z,1.30
2022-11-18T19:37:30.056Z,1.28
2022-11-18T19:39:56.885Z,1.26
2022-11-18T19:41:44.012Z,1.25
2022-11-18T19:43:53.961Z,1.22
2022-11-18T19:45:31.981Z,1.20
2022-11-18T19:47:13.301Z,1.19
2022-11-18T19:48:42.843Z,1.17
2022-11-18T19:50:30.920Z,1.16
2022-11-18T19:51:55.244Z,1.18
2022-11-18T19:53:42.160Z,1.16
2022-11-18T19:55:05.121Z,1.17
2022-11-18T19:56:34.956Z,1.16
2022-11-18T19:58:01.104Z,1.15
2022-11-18T19:59:29.349Z,1.14